Terminal Aerodrome Forecast
Issued by NWS

Home | Current Version | Previous Version | Text Only | Print | Product List | Glossary On
Versions: 1 2 3 4 5 6 7 8 9 10 11 12 13 14 15 16 17 18 19 20 21 22
000
FTUS41 KCAR 180529
TAFHUL
TAF
KHUL 180529Z 1806/1906 01009G16KT 3/4SM -SN BR BKN006 OVC012
     FM181600 33014G23KT 2SM -SHSN OVC014
     FM182200 31012G20KT 5SM -SHSN OVC028=

USA.gov is the U.S. government's official web portal to all federal, state and local government web resources and services.